createdAt,value
2023-02-24T00:00:38.393Z,22.27
2023-02-24T00:03:11.259Z,16.60
2023-02-24T00:05:48.134Z,18.57
2023-02-24T00:08:20.364Z,20.10
2023-02-24T00:10:52.591Z,23.97
2023-02-24T00:13:24.316Z,27.53
2023-02-24T00:16:02.818Z,21.67
2023-02-24T00:18:35.403Z,19.87
2023-02-24T00:21:11.044Z,19.47
2023-02-24T00:23:46.340Z,18.10
2023-02-24T00:26:18.362Z,19.93
2023-02-24T00:28:50.142Z,20.10
2023-02-24T00:31:24.327Z,18.90
2023-02-24T00:33:57.328Z,21.33
2023-02-24T00:36:30.699Z,17.00
2023-02-24T00:39:10.783Z,15.30
2023-02-24T00:41:45.160Z,17.43
2023-02-24T00:44:16.861Z,16.13
2023-02-24T00:46:48.614Z,12.83
2023-02-24T00:49:20.756Z,15.23
2023-02-24T00:51:54.271Z,17.77
2023-02-24T00:54:28.362Z,15.43
2023-02-24T00:57:02.769Z,14.57
2023-02-24T00:59:35.606Z,17.87
2023-02-24T01:02:07.837Z,17.00
2023-02-24T01:04:39.905Z,16.43
2023-02-24T01:07:12.651Z,17.73
2023-02-24T01:09:44.451Z,15.77
2023-02-24T01:12:19.189Z,16.73
2023-02-24T01:14:52.890Z,18.43
2023-02-24T01:17:25.489Z,19.50
2023-02-24T01:20:00.876Z,16.47
2023-02-24T01:22:34.119Z,13.70
2023-02-24T01:25:07.954Z,12.17
2023-02-24T01:27:42.498Z,16.40
2023-02-24T01:30:15.928Z,15.63
2023-02-24T01:32:48.566Z,18.23
2023-02-24T01:35:20.692Z,14.57
2023-02-24T01:37:53.331Z,13.60
2023-02-24T01:40:26.921Z,13.73
2023-02-24T01:42:58.682Z,13.80
2023-02-24T01:45:30.405Z,13.43
2023-02-24T01:48:06.654Z,11.73
2023-02-24T01:50:38.770Z,15.87
2023-02-24T01:53:11.150Z,14.73
2023-02-24T01:55:50.130Z,13.77
2023-02-24T01:58:28.314Z,14.17
2023-02-24T02:01:00.688Z,12.17
2023-02-24T02:03:55.501Z,15.60
2023-02-24T02:06:28.430Z,12.17
2023-02-24T02:09:01.243Z,14.20
2023-02-24T02:11:32.947Z,16.40
2023-02-24T02:14:08.094Z,15.53
2023-02-24T02:17:07.797Z,15.60
2023-02-24T02:20:16.078Z,11.30
2023-02-24T02:23:19.301Z,11.17
2023-02-24T02:26:12.913Z,17.90
2023-02-24T02:28:50.738Z,11.23
2023-02-24T02:31:40.626Z,11.13
2023-02-24T02:35:02.142Z,13.47
2023-02-24T02:37:45.571Z,11.73
2023-02-24T02:40:37.517Z,11.63
2023-02-24T02:43:38.738Z,11.17
2023-02-24T02:46:15.588Z,14.00
2023-02-24T02:48:52.711Z,11.63
2023-02-24T02:51:33.415Z,14.67
2023-02-24T02:54:17.662Z,12.27
2023-02-24T02:57:06.861Z,11.63
2023-02-24T02:59:45.189Z,15.67
2023-02-24T03:02:21.096Z,14.57
2023-02-24T03:04:57.727Z,14.90
2023-02-24T03:07:37.469Z,14.93
2023-02-24T03:10:20.735Z,12.67
2023-02-24T03:12:55.675Z,13.70
2023-02-24T03:15:31.570Z,12.17
2023-02-24T03:18:10.389Z,17.30
2023-02-24T03:20:47.250Z,10.37
2023-02-24T03:23:25.928Z,12.83
2023-02-24T03:26:17.144Z,10.67
2023-02-24T03:29:01.683Z,13.90
2023-02-24T03:31:50.931Z,15.93
2023-02-24T03:34:30.962Z,9.37
2023-02-24T03:37:02.820Z,17.27
2023-02-24T03:39:36.568Z,13.63
2023-02-24T03:42:18.948Z,12.90
2023-02-24T03:44:50.783Z,13.33
2023-02-24T03:47:22.694Z,15.37
2023-02-24T03:49:54.393Z,14.53
2023-02-24T03:52:47.527Z,13.20
2023-02-24T03:55:59.551Z,17.00
2023-02-24T03:59:02.071Z,13.47
2023-02-24T04:02:02.491Z,14.87
2023-02-24T04:04:52.718Z,13.67
2023-02-24T04:07:52.755Z,17.83
2023-02-24T04:10:52.438Z,13.53
2023-02-24T04:13:49.392Z,15.03
2023-02-24T04:16:36.330Z,13.07
2023-02-24T04:19:14.592Z,16.50
2023-02-24T04:21:50.853Z,11.73
2023-02-24T04:24:31.197Z,15.67
2023-02-24T04:27:06.601Z,17.73
2023-02-24T04:29:48.424Z,18.20
2023-02-24T04:32:26.619Z,16.30
2023-02-24T04:35:06.729Z,13.70
2023-02-24T04:37:45.621Z,19.37
2023-02-24T04:40:22.094Z,16.10
2023-02-24T04:42:54.257Z,12.10
2023-02-24T04:45:29.243Z,18.20
2023-02-24T04:48:03.154Z,12.30
2023-02-24T04:50:36.750Z,12.27
2023-02-24T04:53:12.050Z,16.77
2023-02-24T04:55:49.585Z,15.57
2023-02-24T04:58:23.427Z,13.47
2023-02-24T05:00:56.064Z,18.67
2023-02-24T05:03:30.598Z,12.77
2023-02-24T05:06:02.515Z,12.13
2023-02-24T05:08:34.621Z,13.13
2023-02-24T05:11:06.965Z,12.77
2023-02-24T05:13:38.640Z,14.77
2023-02-24T05:16:10.393Z,14.60
2023-02-24T05:18:42.936Z,9.43
2023-02-24T05:21:35.598Z,13.20
2023-02-24T05:24:07.822Z,9.87
2023-02-24T05:26:41.790Z,10.73
2023-02-24T05:29:13.892Z,12.50
2023-02-24T05:31:45.687Z,18.83
2023-02-24T05:34:17.573Z,14.63
2023-02-24T05:36:49.251Z,11.17
2023-02-24T05:39:21.356Z,14.43
2023-02-24T05:41:54.767Z,13.27
2023-02-24T05:44:27.100Z,17.27
2023-02-24T05:46:59.323Z,18.27
2023-02-24T05:49:34.136Z,26.43
2023-02-24T05:52:09.167Z,17.30
2023-02-24T05:54:42.643Z,17.30
2023-02-24T05:57:19.525Z,20.47
2023-02-24T05:59:53.088Z,19.97
2023-02-24T06:02:28.115Z,20.13
2023-02-24T06:05:00.900Z,21.53
2023-02-24T06:07:34.528Z,14.87
2023-02-24T06:10:10.228Z,18.03
2023-02-24T06:12:41.969Z,22.50
2023-02-24T06:15:13.765Z,21.13
2023-02-24T06:17:45.457Z,18.57
2023-02-24T06:20:17.320Z,20.20
2023-02-24T06:22:54.231Z,27.37
2023-02-24T06:25:29.506Z,23.83
2023-02-24T06:28:01.824Z,16.87
2023-02-24T06:30:35.009Z,14.27
2023-02-24T06:33:06.990Z,18.83
2023-02-24T06:35:38.890Z,22.57
2023-02-24T06:38:10.706Z,15.03
2023-02-24T06:40:42.677Z,18.57
2023-02-24T06:43:14.413Z,20.60
2023-02-24T06:45:46.218Z,21.30
2023-02-24T06:48:17.918Z,19.90
2023-02-24T06:50:50.212Z,18.13
2023-02-24T06:53:21.891Z,15.67
2023-02-24T06:55:53.578Z,23.17
2023-02-24T06:58:25.309Z,24.90
2023-02-24T07:00:57.083Z,18.83
2023-02-24T07:03:47.443Z,17.40
2023-02-24T07:06:24.059Z,20.03
2023-02-24T07:08:58.455Z,17.03
2023-02-24T07:11:30.189Z,19.27
2023-02-24T07:14:02.450Z,17.23
2023-02-24T07:16:35.301Z,18.97
2023-02-24T07:19:13.747Z,19.23
2023-02-24T07:21:49.991Z,15.47
2023-02-24T07:24:25.171Z,18.63
2023-02-24T07:26:59.034Z,20.50
2023-02-24T07:29:33.161Z,19.30
2023-02-24T07:32:08.540Z,21.93
2023-02-24T07:34:40.899Z,19.20
2023-02-24T07:37:13.150Z,18.87
2023-02-24T07:39:44.837Z,17.93
2023-02-24T07:42:16.560Z,18.97
2023-02-24T07:44:49.922Z,22.90
2023-02-24T07:47:22.800Z,20.33
2023-02-24T07:49:55.378Z,19.97
2023-02-24T07:52:27.081Z,21.87
2023-02-24T07:55:00.173Z,21.97
2023-02-24T07:57:33.274Z,18.07
2023-02-24T08:00:17.748Z,20.97
2023-02-24T08:02:50.378Z,22.10
2023-02-24T08:05:24.427Z,23.17
2023-02-24T08:07:57.011Z,22.50
2023-02-24T08:10:35.348Z,22.47
2023-02-24T08:13:07.099Z,24.20
2023-02-24T08:15:38.839Z,23.17
2023-02-24T08:18:12.431Z,26.17
2023-02-24T08:20:53.987Z,22.97
2023-02-24T08:23:25.708Z,19.80
2023-02-24T08:25:57.404Z,25.47
2023-02-24T08:28:29.109Z,22.67
2023-02-24T08:31:04.478Z,19.97
2023-02-24T08:33:37.302Z,19.63
2023-02-24T08:36:09.126Z,19.67
2023-02-24T08:38:41.924Z,20.27
2023-02-24T08:41:21.090Z,24.57
2023-02-24T08:43:53.209Z,22.17
2023-02-24T08:46:32.806Z,18.20
2023-02-24T08:49:10.691Z,20.97
2023-02-24T08:51:43.916Z,17.17
2023-02-24T08:54:19.612Z,21.07
2023-02-24T08:56:55.982Z,22.27
2023-02-24T08:59:49.628Z,19.60
2023-02-24T09:02:27.223Z,21.50
2023-02-24T09:05:07.467Z,20.27
2023-02-24T09:07:41.468Z,18.97
2023-02-24T09:10:18.597Z,16.43
2023-02-24T09:12:53.466Z,17.47
2023-02-24T09:15:25.518Z,16.60
2023-02-24T09:18:07.185Z,18.03
2023-02-24T09:21:15.843Z,18.57
2023-02-24T09:23:47.569Z,18.03
2023-02-24T09:26:20.673Z,18.20
2023-02-24T09:28:58.278Z,18.93
2023-02-24T09:31:40.688Z,13.23
2023-02-24T09:34:18.439Z,17.07
2023-02-24T09:37:02.928Z,13.67
2023-02-24T09:39:55.402Z,12.73
2023-02-24T09:42:46.212Z,10.37
2023-02-24T09:45:35.845Z,16.17
2023-02-24T09:48:21.152Z,11.30
2023-02-24T09:51:05.205Z,9.00
2023-02-24T09:53:41.850Z,13.53
2023-02-24T09:56:37.178Z,8.63
2023-02-24T10:00:00.950Z,12.73
2023-02-24T10:02:46.556Z,19.07
2023-02-24T10:05:34.052Z,12.50
2023-02-24T10:08:25.275Z,12.03
2023-02-24T10:11:07.073Z,10.73
2023-02-24T10:13:47.468Z,12.03
2023-02-24T10:16:24.063Z,14.40
2023-02-24T10:19:16.756Z,12.50
2023-02-24T10:22:00.440Z,14.37
2023-02-24T10:24:47.386Z,13.47
2023-02-24T10:27:37.184Z,14.60
2023-02-24T10:30:27.899Z,10.43
2023-02-24T10:33:05.416Z,11.57
2023-02-24T10:35:38.745Z,11.90
2023-02-24T10:38:10.489Z,11.73
2023-02-24T10:40:56.918Z,11.73
2023-02-24T10:43:31.792Z,11.70
2023-02-24T10:46:06.611Z,15.20
2023-02-24T10:48:42.456Z,9.70
2023-02-24T10:51:30.224Z,13.30
2023-02-24T10:54:33.951Z,10.17
2023-02-24T10:57:08.091Z,11.40
2023-02-24T11:00:05.645Z,12.63
2023-02-24T11:02:59.588Z,10.00
2023-02-24T11:05:44.404Z,10.60
2023-02-24T11:08:39.808Z,14.03
2023-02-24T11:11:29.887Z,15.43
2023-02-24T11:14:21.388Z,10.23
2023-02-24T11:17:14.615Z,15.47
2023-02-24T11:20:10.749Z,9.60
2023-02-24T11:22:45.944Z,10.93
2023-02-24T11:25:26.504Z,9.97
2023-02-24T11:27:58.374Z,9.97
2023-02-24T11:31:01.353Z,8.03
2023-02-24T11:33:59.638Z,10.10
2023-02-24T11:36:54.494Z,9.20
2023-02-24T11:39:53.062Z,7.37
2023-02-24T11:42:43.659Z,7.80
2023-02-24T11:45:33.707Z,9.10
2023-02-24T11:48:20.831Z,7.00
2023-02-24T11:51:18.065Z,11.10
2023-02-24T11:53:57.689Z,11.77
2023-02-24T11:56:53.173Z,8.33
2023-02-24T11:59:41.145Z,9.47
2023-02-24T12:02:43.547Z,10.23
2023-02-24T12:05:26.647Z,9.23
2023-02-24T12:08:21.953Z,11.10
2023-02-24T12:11:07.053Z,9.73
2023-02-24T12:13:52.998Z,12.30
2023-02-24T12:16:31.305Z,10.37
2023-02-24T12:19:14.954Z,10.37
2023-02-24T12:21:58.112Z,11.33
2023-02-24T12:24:29.879Z,13.83
2023-02-24T12:27:14.440Z,9.43
2023-02-24T12:29:54.491Z,8.87
2023-02-24T12:32:53.335Z,10.10
2023-02-24T12:35:31.954Z,11.83
2023-02-24T12:38:32.754Z,10.30
2023-02-24T12:41:29.554Z,9.07
2023-02-24T12:44:55.087Z,9.13
2023-02-24T12:48:06.202Z,10.63
2023-02-24T12:50:54.748Z,9.97
2023-02-24T12:53:37.818Z,11.37
2023-02-24T12:56:25.142Z,14.50
2023-02-24T12:59:02.361Z,10.70
2023-02-24T13:02:01.191Z,11.50
2023-02-24T13:04:51.484Z,9.47
2023-02-24T13:07:45.818Z,4.93
2023-02-24T13:10:46.909Z,7.73
2023-02-24T13:13:30.579Z,7.53
2023-02-24T13:16:02.369Z,8.13
2023-02-24T13:18:36.250Z,9.43
2023-02-24T13:21:24.743Z,8.87
2023-02-24T13:24:01.910Z,9.40
2023-02-24T13:26:33.756Z,8.43
2023-02-24T13:29:16.194Z,6.67
2023-02-24T13:31:52.975Z,7.23
2023-02-24T13:34:43.206Z,6.70
2023-02-24T13:37:36.944Z,5.90
2023-02-24T13:40:23.988Z,7.97
2023-02-24T13:42:58.993Z,10.60
2023-02-24T13:45:42.149Z,9.57
2023-02-24T13:48:22.108Z,8.50
2023-02-24T13:51:35.769Z,7.93
2023-02-24T13:54:26.088Z,15.10
2023-02-24T13:57:03.695Z,9.33
2023-02-24T13:59:55.269Z,10.03
2023-02-24T14:02:30.948Z,8.60
2023-02-24T14:05:11.531Z,8.40
2023-02-24T14:07:47.196Z,7.20
2023-02-24T14:10:23.375Z,9.20
2023-02-24T14:13:07.708Z,9.17
2023-02-24T14:15:42.731Z,10.17
2023-02-24T14:18:24.858Z,8.53
2023-02-24T14:20:58.337Z,10.23
2023-02-24T14:23:32.651Z,8.60
2023-02-24T14:26:13.842Z,10.37
2023-02-24T14:29:00.546Z,10.37
2023-02-24T14:31:32.403Z,8.63
2023-02-24T14:34:08.972Z,8.47
2023-02-24T14:36:45.006Z,9.90
2023-02-24T14:39:23.499Z,7.47
2023-02-24T14:42:12.295Z,12.43
2023-02-24T14:44:52.844Z,8.30
2023-02-24T14:47:28.652Z,9.57
2023-02-24T14:50:03.062Z,9.83
2023-02-24T14:52:56.375Z,6.03
2023-02-24T14:55:34.365Z,18.03
2023-02-24T14:58:26.288Z,8.63
2023-02-24T15:01:19.647Z,7.83
2023-02-24T15:04:01.636Z,7.30
2023-02-24T15:06:40.939Z,4.40
2023-02-24T15:09:21.867Z,6.90
2023-02-24T15:11:56.086Z,6.53
2023-02-24T15:14:31.630Z,8.47
2023-02-24T15:17:18.100Z,9.37
2023-02-24T15:19:54.602Z,11.90
2023-02-24T15:22:33.669Z,7.20
2023-02-24T15:25:28.113Z,7.67
2023-02-24T15:28:03.814Z,7.43
2023-02-24T15:30:38.870Z,11.23
2023-02-24T15:33:23.339Z,7.30
2023-02-24T15:35:58.959Z,7.40
2023-02-24T15:38:34.928Z,8.17
2023-02-24T15:41:08.649Z,16.70
2023-02-24T15:43:43.451Z,14.40
2023-02-24T15:46:19.676Z,11.20
2023-02-24T15:48:53.329Z,10.80
2023-02-24T15:51:40.544Z,7.23
2023-02-24T15:54:29.397Z,11.40
2023-02-24T15:57:02.305Z,11.63
2023-02-24T15:59:34.020Z,12.60
2023-02-24T16:02:17.282Z,15.00
2023-02-24T16:04:50.100Z,9.60
2023-02-24T16:07:25.807Z,10.53
2023-02-24T16:09:59.038Z,12.53
2023-02-24T16:12:37.028Z,7.77
2023-02-24T16:15:18.854Z,12.23
2023-02-24T16:17:52.018Z,10.30
2023-02-24T16:20:31.254Z,11.63
2023-02-24T16:23:05.515Z,8.77
2023-02-24T16:25:41.137Z,7.53
2023-02-24T16:28:15.730Z,11.83
2023-02-24T16:30:49.704Z,8.70
2023-02-24T16:33:23.449Z,9.57
2023-02-24T16:35:55.506Z,10.50
2023-02-24T16:38:27.233Z,13.77
2023-02-24T16:40:59.164Z,13.87
2023-02-24T16:43:31.202Z,8.47
2023-02-24T16:46:05.366Z,9.10
2023-02-24T16:48:39.436Z,12.57
2023-02-24T16:51:12.830Z,18.47
2023-02-24T16:53:44.609Z,10.73
2023-02-24T16:56:16.879Z,18.87
2023-02-24T16:58:48.606Z,7.70
2023-02-24T17:01:21.588Z,12.37
2023-02-24T17:03:54.151Z,7.23
2023-02-24T17:06:26.180Z,12.30
2023-02-24T17:08:58.450Z,11.73
2023-02-24T17:11:30.448Z,5.93
2023-02-24T17:14:02.179Z,12.63
2023-02-24T17:16:34.565Z,7.50
2023-02-24T17:19:06.282Z,8.80
2023-02-24T17:21:42.740Z,10.63
2023-02-24T17:24:19.784Z,11.97
2023-02-24T17:26:52.326Z,8.40
2023-02-24T17:29:24.148Z,10.40
2023-02-24T17:31:57.346Z,10.57
2023-02-24T17:34:29.163Z,15.30
2023-02-24T17:37:00.842Z,14.83
2023-02-24T17:39:32.588Z,21.07
2023-02-24T17:42:04.706Z,11.40
2023-02-24T17:44:36.474Z,7.70
2023-02-24T17:47:09.076Z,9.70
2023-02-24T17:49:40.913Z,7.53
2023-02-24T17:52:12.834Z,9.33
2023-02-24T17:54:44.645Z,10.93
2023-02-24T17:57:16.379Z,14.83
2023-02-24T17:59:48.091Z,15.57
2023-02-24T18:02:19.873Z,8.70
2023-02-24T18:04:51.676Z,13.83
2023-02-24T18:07:25.180Z,13.07
2023-02-24T18:09:56.985Z,8.53
2023-02-24T18:12:29.132Z,11.90
2023-02-24T18:15:08.606Z,12.33
2023-02-24T18:17:40.951Z,8.40
2023-02-24T18:20:14.060Z,9.33
2023-02-24T18:22:45.774Z,12.37
2023-02-24T18:25:17.603Z,11.43
2023-02-24T18:27:49.307Z,8.37
2023-02-24T18:30:21.333Z,12.67
2023-02-24T18:32:53.304Z,7.23
2023-02-24T18:35:25.276Z,11.57
2023-02-24T18:37:57.067Z,9.93
2023-02-24T18:40:29.524Z,14.83
2023-02-24T18:43:01.222Z,11.87
2023-02-24T18:45:32.963Z,9.23
2023-02-24T18:48:05.135Z,11.50
2023-02-24T18:50:36.951Z,11.07
2023-02-24T18:53:08.829Z,12.00
2023-02-24T18:55:40.543Z,10.47
2023-02-24T18:58:12.304Z,16.17
2023-02-24T19:00:45.209Z,12.00
2023-02-24T19:03:17.012Z,11.70
2023-02-24T19:05:48.906Z,14.37
2023-02-24T19:08:20.635Z,11.93
2023-02-24T19:10:52.354Z,17.83
2023-02-24T19:13:24.711Z,11.47
2023-02-24T19:15:59.963Z,12.07
2023-02-24T19:18:31.769Z,12.63
2023-02-24T19:21:08.138Z,10.67
2023-02-24T19:23:39.863Z,12.90
2023-02-24T19:26:26.364Z,10.10
2023-02-24T19:28:59.133Z,9.40
2023-02-24T19:31:32.710Z,11.87
2023-02-24T19:34:07.326Z,13.60
2023-02-24T19:36:39.517Z,11.20
2023-02-24T19:39:15.229Z,12.17
2023-02-24T19:41:49.446Z,7.97
2023-02-24T19:44:21.448Z,10.07
2023-02-24T19:46:53.174Z,16.90
2023-02-24T19:49:25.360Z,19.53
2023-02-24T19:51:59.156Z,21.13
2023-02-24T19:54:30.858Z,16.97
2023-02-24T19:57:02.622Z,14.03
2023-02-24T19:59:34.331Z,11.57
2023-02-24T20:02:06.763Z,16.17
2023-02-24T20:04:38.586Z,14.07
2023-02-24T20:07:10.484Z,15.03
2023-02-24T20:09:43.000Z,14.77
2023-02-24T20:12:14.976Z,12.67
2023-02-24T20:14:46.712Z,12.53
2023-02-24T20:17:18.744Z,15.97
2023-02-24T20:19:50.423Z,18.63
2023-02-24T20:22:22.184Z,15.93
2023-02-24T20:24:53.856Z,14.27
2023-02-24T20:27:25.567Z,13.33
2023-02-24T20:29:57.365Z,17.60
2023-02-24T20:32:29.264Z,12.93
2023-02-24T20:35:01.047Z,17.03
2023-02-24T20:37:32.735Z,15.67
2023-02-24T20:40:05.448Z,14.17
2023-02-24T20:42:37.160Z,18.83
2023-02-24T20:45:09.222Z,17.43
2023-02-24T20:47:41.053Z,15.13
2023-02-24T20:50:12.819Z,13.37
2023-02-24T20:52:44.533Z,11.07
2023-02-24T20:55:16.585Z,16.10
2023-02-24T20:57:49.625Z,18.00
2023-02-24T21:00:21.597Z,13.67
2023-02-24T21:02:53.674Z,13.17
2023-02-24T21:05:26.521Z,14.80
2023-02-24T21:07:58.207Z,9.97
2023-02-24T21:10:30.027Z,10.67
2023-02-24T21:13:01.825Z,10.00
2023-02-24T21:15:33.727Z,5.97
2023-02-24T21:18:09.926Z,6.23
2023-02-24T21:20:41.677Z,9.00
2023-02-24T21:23:13.908Z,8.63
2023-02-24T21:25:45.802Z,10.43
2023-02-24T21:28:18.332Z,9.50
2023-02-24T21:30:50.967Z,8.67
2023-02-24T21:33:22.927Z,8.53
2023-02-24T21:35:59.616Z,4.67
2023-02-24T21:38:34.167Z,3.83
2023-02-24T21:41:08.011Z,3.87
2023-02-24T21:43:39.965Z,6.70
2023-02-24T21:46:14.031Z,2.27
2023-02-24T21:48:46.018Z,4.23
2023-02-24T21:51:18.221Z,1.87
2023-02-24T21:53:50.185Z,1.20
2023-02-24T21:56:25.167Z,0.77
2023-02-24T21:58:58.115Z,0.70
2023-02-24T22:01:32.369Z,0.40
2023-02-24T22:04:07.628Z,0.77
2023-02-24T22:06:40.914Z,0.23
2023-02-24T22:09:19.182Z,0.60
2023-02-24T22:11:51.516Z,0.93
2023-02-24T22:14:23.236Z,0.47
2023-02-24T22:16:54.977Z,1.70
2023-02-24T22:19:26.743Z,1.00
2023-02-24T22:21:59.438Z,1.77
2023-02-24T22:24:31.695Z,0.57
2023-02-24T22:27:03.465Z,0.40
2023-02-24T22:29:35.167Z,0.13
2023-02-24T22:32:06.949Z,0.30
2023-02-24T22:34:38.711Z,0.33
2023-02-24T22:37:10.449Z,0.70
2023-02-24T22:39:42.678Z,0.43
2023-02-24T22:42:14.422Z,0.30
2023-02-24T22:44:46.207Z,0.50
2023-02-24T22:47:17.908Z,1.10
2023-02-24T22:49:49.649Z,0.20
2023-02-24T22:52:21.394Z,1.07
2023-02-24T22:54:53.160Z,0.30
2023-02-24T22:57:24.994Z,1.20
2023-02-24T22:59:56.751Z,0.20
2023-02-24T23:02:28.575Z,1.20
2023-02-24T23:05:00.291Z,0.07
2023-02-24T23:07:31.991Z,0.30
2023-02-24T23:10:03.909Z,0.30
2023-02-24T23:12:35.694Z,0.40
2023-02-24T23:15:08.225Z,0.03
2023-02-24T23:17:41.030Z,0.30
2023-02-24T23:20:12.845Z,1.40
2023-02-24T23:22:45.202Z,0.40
2023-02-24T23:25:17.075Z,4.30
2023-02-24T23:27:49.701Z,0.40
2023-02-24T23:30:23.346Z,0.30
2023-02-24T23:32:55.150Z,0.40
2023-02-24T23:35:26.931Z,1.00
2023-02-24T23:37:58.632Z,0.83
2023-02-24T23:40:41.360Z,1.60
2023-02-24T23:43:19.894Z,1.03
2023-02-24T23:45:51.834Z,1.43
2023-02-24T23:48:24.127Z,0.50
2023-02-24T23:50:57.316Z,1.63
2023-02-24T23:53:29.029Z,0.40
2023-02-24T23:56:00.763Z,0.30
2023-02-24T23:58:32.520Z,0.40
